Time;durP1;ratioP1;P1;durP2;ratioP2;P2;SDS_P1;SDS_P2;PMS_P1;PMS_P2;Temp;Humidity;BMP_temperature;BMP_pressure;BME280_temperature;BME280_humidity;BME280_pressure;Samples;Min_cycle;Max_cycle;Signal;HPM_P1;HPM_P2
2023/03/30 00:05:46;;;;;;;36.50;29.40;;;;;;;6.60;55.12;100282.16;111682;1247;21960;-85
2023/03/30 00:09:06;;;;;;;32.90;27.20;;;;;;;6.53;55.06;100280.08;111411;1253;21976;-86
2023/03/30 00:12:45;;;;;;;34.10;27.30;;;;;;;6.40;55.34;100281.23;111727;1253;22161;-85
2023/03/30 00:15:58;;;;;;;32.70;23.30;;;;;;;6.30;55.39;100280.23;111689;1253;21958;-85
2023/03/30 00:18:48;;;;;;;33.80;22.60;;;;;;;6.26;55.61;100275.14;111600;1253;23625;-84
2023/03/30 00:21:33;;;;;;;32.20;23.90;;;;;;;6.26;55.88;100271.51;111605;1251;21963;-86
2023/03/30 00:24:14;;;;;;;29.60;25.10;;;;;;;6.29;56.02;100264.36;111330;1253;21977;-87
2023/03/30 00:27:03;;;;;;;33.40;27.20;;;;;;;6.23;56.12;100264.14;111440;1253;22610;-82
2023/03/30 00:29:43;;;;;;;29.70;24.40;;;;;;;6.16;56.30;100264.80;110946;1260;23115;-84
2023/03/30 00:32:27;;;;;;;;;;;;;;;6.10;56.30;100265.96;110869;1259;22932;-84
2023/03/30 00:35:06;;;;;;;29.50;24.40;;;;;;;5.97;56.72;100265.01;110478;1264;21995;-83
2023/03/30 00:37:48;;;;;;;25.50;22.30;;;;;;;5.92;56.88;100262.33;110380;1258;23027;-84
2023/03/30 00:40:26;;;;;;;30.80;26.40;;;;;;;5.91;56.93;100260.80;110549;1264;22000;-84
2023/03/30 00:43:16;;;;;;;33.40;29.40;;;;;;;5.89;57.26;100260.30;110533;1264;21988;-85
2023/03/30 00:46:10;;;;;;;33.50;29.90;;;;;;;5.90;57.17;100254.95;110397;1264;22858;-84
2023/03/30 00:48:51;;;;;;;32.10;28.30;;;;;;;5.94;57.43;100252.46;110396;1263;23031;-81
2023/03/30 00:51:41;;;;;;;37.40;29.70;;;;;;;6.01;57.41;100248.01;110729;1264;23709;-83
2023/03/30 00:54:22;;;;;;;32.70;29.40;;;;;;;6.04;57.52;100243.62;110818;1260;23717;-85
2023/03/30 00:56:57;;;;;;;34.60;30.20;;;;;;;6.06;57.59;100241.52;110682;1260;22436;-83
2023/03/30 00:59:54;;;;;;;;;;;;;;;;;;;;;
2023/03/30 01:02:43;;;;;;;34.30;30.70;;;;;;;6.02;57.73;100239.52;110686;1260;22899;-85
2023/03/30 01:05:54;;;;;;;35.80;32.20;;;;;;;5.97;57.92;100234.42;110791;1260;22011;-84
2023/03/30 01:08:43;;;;;;;35.50;31.80;;;;;;;5.94;57.91;100227.73;111432;1253;21945;-83
2023/03/30 01:11:40;;;;;;;27.30;24.60;;;;;;;5.93;58.03;100225.54;111728;1253;21958;-84
2023/03/30 01:14:23;;;;;;;24.40;19.50;;;;;;;5.93;58.16;100225.36;111481;1253;22182;-82
2023/03/30 01:17:39;;;;;;;22.10;18.80;;;;;;;5.97;58.46;100226.67;111341;1253;21961;-83
2023/03/30 01:20:57;;;;;;;22.50;19.20;;;;;;;6.03;58.70;100225.86;111484;1253;21950;-84
2023/03/30 01:24:25;;;;;;;27.10;19.50;;;;;;;6.09;58.87;100222.96;110975;1260;22099;-82
2023/03/30 01:27:25;;;;;;;18.00;15.00;;;;;;;6.12;58.65;100222.04;110139;1267;21955;-81
2023/03/30 01:30:37;;;;;;;21.50;14.40;;;;;;;6.13;58.66;100222.19;109696;1271;21986;-84
2023/03/30 01:34:11;;;;;;;18.30;13.60;;;;;;;6.13;58.73;100223.21;109826;1271;21991;-84
2023/03/30 01:37:04;;;;;;;21.00;14.30;;;;;;;6.13;58.77;100217.52;109738;1271;24300;-82
2023/03/30 01:40:01;;;;;;;18.90;13.80;;;;;;;6.14;58.80;100214.05;109734;1271;22729;-81
2023/03/30 01:43:39;;;;;;;21.40;15.20;;;;;;;6.18;58.85;100215.00;109770;1269;21976;-84
2023/03/30 01:47:05;;;;;;;20.40;16.70;;;;;;;6.21;58.97;100214.75;110496;1264;22271;-84
2023/03/30 01:50:25;;;;;;;19.30;14.40;;;;;;;6.22;58.97;100206.96;109846;1271;21987;-85
2023/03/30 01:54:00;;;;;;;22.50;14.90;;;;;;;6.21;59.08;100205.44;108883;1283;22013;-84
2023/03/30 01:57:03;;;;;;;20.90;15.20;;;;;;;6.20;59.18;100200.95;109121;1280;24476;-85
2023/03/30 02:00:10;;;;;;;19.50;14.30;;;;;;;6.23;59.22;100196.57;109222;1274;23825;-86
2023/03/30 02:03:19;;;;;;;18.70;14.70;;;;;;;6.22;59.19;100190.70;109451;1274;21978;-85
2023/03/30 02:06:16;;;;;;;15.70;11.70;;;;;;;6.25;59.23;100189.62;109424;1274;22783;-86
2023/03/30 02:09:08;;;;;;;14.80;11.60;;;;;;;6.25;59.37;100188.92;109408;1274;22003;-84
2023/03/30 02:12:03;;;;;;;15.80;11.50;;;;;;;6.30;59.44;100185.00;109456;1274;22016;-84
2023/03/30 02:15:00;;;;;;;17.40;12.30;;;;;;;6.35;59.52;100186.64;109414;1274;21985;-84
2023/03/30 02:17:46;;;;;;;22.40;13.00;;;;;;;6.39;59.58;100184.28;109621;1270;23669;-84
2023/03/30 02:20:22;;;;;;;16.60;13.30;;;;;;;6.42;59.52;100177.63;109683;1270;22743;-83
2023/03/30 02:22:56;;;;;;;16.60;12.30;;;;;;;6.42;59.39;100173.84;109723;1270;23706;-82
2023/03/30 02:25:37;;;;;;;15.30;11.20;;;;;;;6.39;59.42;100172.35;109602;1260;22039;-85
2023/03/30 02:28:12;;;;;;;17.10;12.80;;;;;;;6.35;59.33;100169.17;110564;1265;23031;-84
2023/03/30 02:30:48;;;;;;;15.10;11.10;;;;;;;6.33;59.51;100168.19;110960;1258;23687;-86
2023/03/30 02:33:57;;;;;;;15.40;10.60;;;;;;;6.32;59.65;100160.41;110907;1258;22395;-82
2023/03/30 02:37:10;;;;;;;13.80;10.50;;;;;;;6.32;59.83;100154.88;110798;1263;21986;-84
2023/03/30 02:40:40;;;;;;;15.60;10.40;;;;;;;6.31;59.91;100147.99;110999;1262;23605;-85
2023/03/30 02:44:37;;;;;;;13.80;11.50;;;;;;;6.26;60.15;100148.48;110825;1262;22961;-85
2023/03/30 02:47:35;;;;;;;14.00;10.70;;;;;;;6.21;60.41;100146.85;110105;1256;23046;-85
2023/03/30 02:51:08;;;;;;;14.60;11.10;;;;;;;6.18;60.25;100142.94;110573;1267;22035;-84
2023/03/30 02:54:39;;;;;;;17.30;12.20;;;;;;;6.18;60.50;100139.16;110718;1261;22367;-86
2023/03/30 02:58:00;;;;;;;19.40;14.90;;;;;;;6.21;60.71;100133.36;110981;1261;21962;-85
2023/03/30 03:01:24;;;;;;;19.40;16.40;;;;;;;6.22;60.93;100129.04;111059;1262;21926;-85
2023/03/30 03:04:24;;;;;;;17.90;15.80;;;;;;;6.21;60.99;100126.10;110860;1261;21963;-84
2023/03/30 03:07:32;;;;;;;19.70;17.20;;;;;;;6.19;61.09;100122.69;110637;1262;21973;-85
2023/03/30 03:10:47;;;;;;;20.80;17.10;;;;;;;6.18;61.15;100118.06;111065;1262;21977;-84
2023/03/30 03:14:19;;;;;;;20.00;17.90;;;;;;;6.13;61.36;100110.91;110587;1265;22237;-84
2023/03/30 03:17:21;;;;;;;20.00;17.90;;;;;;;6.16;61.65;100117.60;110523;1258;21978;-84
2023/03/30 03:20:13;;;;;;;19.40;17.40;;;;;;;6.16;61.96;100117.58;110700;1265;21963;-83
2023/03/30 03:23:06;;;;;;;20.30;17.30;;;;;;;6.15;62.06;100112.77;110003;1268;21961;-84
2023/03/30 03:26:21;;;;;;;19.90;16.90;;;;;;;6.09;62.27;100108.08;110113;1268;22170;-84
2023/03/30 03:30:20;;;;;;;18.40;14.10;;;;;;;6.01;62.80;100103.92;110695;1268;23592;-85
2023/03/30 03:33:26;;;;;;;16.40;13.00;;;;;;;5.93;63.45;100097.02;109512;1274;23081;-84
2023/03/30 03:37:06;;;;;;;17.70;13.30;;;;;;;5.86;63.90;100096.13;109526;1274;23813;-83
2023/03/30 03:39:57;;;;;;;18.60;13.50;;;;;;;5.81;63.99;100093.30;109495;1274;22762;-83
2023/03/30 03:42:44;;;;;;;16.60;14.30;;;;;;;5.78;64.37;100082.85;109291;1274;22020;-83
2023/03/30 03:48:46;;;;;;;15.30;13.20;;;;;;;5.78;64.91;100081.45;110783;1263;21986;-84
2023/03/30 03:51:32;;;;;;;15.30;13.10;;;;;;;5.81;65.05;100078.44;110486;1263;22013;-84
2023/03/30 03:54:19;;;;;;;15.90;13.80;;;;;;;5.83;65.31;100078.05;110820;1262;22907;-79
2023/03/30 03:57:14;;;;;;;16.10;13.80;;;;;;;5.82;65.36;100074.11;110799;1263;23787;-82
2023/03/30 04:00:22;;;;;;;14.80;12.70;;;;;;;5.82;65.48;100074.28;109829;1269;23723;-84
2023/03/30 04:03:06;;;;;;;19.90;14.60;;;;;;;5.85;65.52;100070.26;110193;1263;23693;-84
2023/03/30 04:05:46;;;;;;;20.00;13.70;;;;;;;5.87;65.45;100064.50;110840;1263;21969;-85
2023/03/30 04:08:24;;;;;;;22.60;15.50;;;;;;;5.91;65.51;100058.02;110584;1263;21986;-84
2023/03/30 04:11:16;;;;;;;28.80;22.50;;;;;;;5.93;65.69;100059.88;110606;1263;21966;-86
2023/03/30 04:14:36;;;;;;;34.90;27.20;;;;;;;5.92;65.72;100061.45;110509;1263;24339;-85
2023/03/30 04:17:56;;;;;;;19.20;15.00;;;;;;;5.92;65.90;100056.97;110652;1263;22969;-88
2023/03/30 04:21:02;;;;;;;18.40;13.30;;;;;;;5.93;65.86;100051.23;110597;1265;21999;-85
2023/03/30 04:24:17;;;;;;;20.50;12.90;;;;;;;5.96;65.85;100048.44;110707;1259;22008;-86
2023/03/30 04:27:36;;;;;;;20.60;15.20;;;;;;;5.96;65.89;100043.09;111158;1259;21981;-85
2023/03/30 04:30:57;;;;;;;20.20;14.20;;;;;;;5.96;65.90;100041.69;110871;1259;22212;-88
2023/03/30 04:34:07;;;;;;;23.70;14.80;;;;;;;5.98;66.03;100042.54;111118;1260;22090;-86
2023/03/30 04:37:22;;;;;;;19.20;16.00;;;;;;;5.98;66.10;100044.23;110769;1260;22006;-85
2023/03/30 04:40:33;;;;;;;21.10;16.40;;;;;;;5.99;66.10;100041.13;111366;1256;21977;-86
2023/03/30 04:43:36;;;;;;;20.00;16.80;;;;;;;6.02;65.94;100038.45;111316;1255;21925;-85
2023/03/30 04:46:44;;;;;;;24.30;18.00;;;;;;;6.06;66.21;100035.95;111139;1256;22249;-84
2023/03/30 04:50:00;;;;;;;23.40;18.00;;;;;;;6.13;66.01;100029.39;109289;1256;2381100;-85
2023/03/30 04:53:24;;;;;;;23.70;17.40;;;;;;;6.14;66.07;100032.46;111401;1255;21966;-87
2023/03/30 04:56:43;;;;;;;25.30;17.20;;;;;;;6.20;66.04;100032.14;110970;1261;23705;-87
2023/03/30 04:59:47;;;;;;;21.80;17.00;;;;;;;6.22;66.07;100033.63;110563;1261;21997;-85
2023/03/30 05:03:12;;;;;;;19.90;15.00;;;;;;;6.26;65.95;100031.11;110494;1265;22005;-84
2023/03/30 05:06:26;;;;;;;28.90;16.90;;;;;;;6.27;66.03;100028.85;110553;1265;22011;-85
2023/03/30 05:09:35;;;;;;;24.50;18.70;;;;;;;6.26;65.86;100020.75;110421;1265;21957;-85
2023/03/30 05:12:33;;;;;;;25.30;16.80;;;;;;;6.24;65.80;100018.39;110365;1260;23655;-82
2023/03/30 05:15:36;;;;;;;23.90;14.70;;;;;;;6.21;66.04;100019.15;110657;1265;22036;-84
2023/03/30 05:18:48;;;;;;;22.40;16.30;;;;;;;6.24;66.05;100022.20;110666;1265;23707;-86
2023/03/30 05:22:05;;;;;;;27.80;18.10;;;;;;;6.23;66.28;100022.73;111061;1259;22581;-83
2023/03/30 05:25:31;;;;;;;25.80;19.90;;;;;;;6.21;66.34;100017.59;110978;1259;21957;-83
2023/03/30 05:28:51;;;;;;;20.40;17.70;;;;;;;6.21;66.39;100008.44;110993;1260;22980;-84
2023/03/30 05:32:06;;;;;;;22.00;18.60;;;;;;;6.20;66.57;100009.15;111177;1260;22128;-83
2023/03/30 05:35:24;;;;;;;23.70;19.50;;;;;;;6.22;66.71;100004.11;111199;1259;23621;-84
2023/03/30 05:38:30;;;;;;;27.60;21.60;;;;;;;6.27;66.85;100005.01;111270;1259;21945;-84
2023/03/30 05:41:47;;;;;;;29.50;22.00;;;;;;;6.32;66.96;100008.68;111418;1259;23693;-84
2023/03/30 05:44:33;;;;;;;32.60;22.80;;;;;;;6.39;66.84;100006.23;111254;1259;22307;-83
2023/03/30 05:48:10;;;;;;;28.20;23.00;;;;;;;6.43;66.73;100008.58;111610;1254;21973;-86
2023/03/30 05:51:28;;;;;;;32.80;24.20;;;;;;;6.50;66.81;100005.60;111335;1254;22380;-84
2023/03/30 05:54:28;;;;;;;26.10;21.10;;;;;;;6.62;66.94;100000.48;111579;1254;23699;-83
2023/03/30 05:57:45;;;;;;;21.20;18.80;;;;;;;6.75;66.91;100001.66;111369;1254;21974;-85
2023/03/30 06:00:48;;;;;;;22.40;18.50;;;;;;;6.92;66.88;100003.95;111791;1254;22963;-84
2023/03/30 06:03:42;;;;;;;22.30;19.60;;;;;;;7.04;66.93;99995.15;111725;1254;21967;-84
2023/03/30 06:06:45;;;;;;;25.90;23.10;;;;;;;7.19;66.66;99995.21;111461;1254;22603;-85
2023/03/30 06:09:26;;;;;;;26.50;24.00;;;;;;;7.29;66.24;99992.34;111541;1254;23033;-84
2023/03/30 06:12:45;;;;;;;;;;;;;;;;;;;;;
2023/03/30 06:16:22;;;;;;;34.70;31.20;;;;;;;7.45;66.19;99987.34;111691;1254;21964;-84
2023/03/30 06:19:25;;;;;;;34.30;30.90;;;;;;;7.56;66.11;99982.50;110849;1260;23596;-82
2023/03/30 06:22:21;;;;;;;28.70;25.90;;;;;;;7.70;65.97;99982.41;111010;1260;21977;-83
2023/03/30 06:25:14;;;;;;;28.60;25.30;;;;;;;7.80;65.43;99979.14;110884;1259;21970;-84
2023/03/30 06:28:15;;;;;;;36.80;32.90;;;;;;;7.87;65.27;99977.35;111016;1257;24395;-85
2023/03/30 06:31:23;;;;;;;26.70;21.80;;;;;;;7.98;65.38;99977.34;110448;1268;23723;-84
2023/03/30 06:35:04;;;;;;;21.40;19.20;;;;;;;8.16;64.93;99974.84;109746;1270;23704;-84
2023/03/30 06:37:45;;;;;;;24.00;20.80;;;;;;;8.26;64.65;99971.22;110436;1263;22258;-85
2023/03/30 06:40:32;;;;;;;20.00;17.90;;;;;;;8.40;64.57;99969.02;110195;1266;21700;-83
2023/03/30 06:43:54;;;;;;;31.50;25.50;;;;;;;8.50;64.08;99967.12;109996;1270;23033;-84
2023/03/30 06:46:47;;;;;;;25.50;19.80;;;;;;;8.60;64.10;99969.34;109899;1270;21972;-83
2023/03/30 06:49:32;;;;;;;27.80;20.60;;;;;;;8.71;63.93;99962.39;110266;1266;21980;-83
2023/03/30 06:52:34;;;;;;;21.40;18.90;;;;;;;8.75;63.37;99966.23;110383;1268;24293;-81
2023/03/30 06:55:12;;;;;;;35.80;25.40;;;;;;;8.69;62.85;99963.48;109885;1268;21970;-81
2023/03/30 06:57:45;;;;;;;30.40;24.20;;;;;;;8.65;62.88;99957.23;110001;1259;22958;-81
2023/03/30 07:00:21;;;;;;;24.90;20.50;;;;;;;8.67;63.05;99959.22;111245;1259;21965;-82
2023/03/30 07:03:19;;;;;;;22.30;19.20;;;;;;;8.72;63.22;99952.98;111284;1257;21965;-81
2023/03/30 07:06:07;;;;;;;23.10;19.50;;;;;;;8.75;63.22;99948.17;111068;1259;21945;-84
2023/03/30 07:08:45;;;;;;;20.60;18.40;;;;;;;8.80;63.50;99950.95;110761;1263;23599;-81
2023/03/30 07:11:29;;;;;;;21.30;19.20;;;;;;;8.84;63.42;99950.10;110785;1263;21959;-82
2023/03/30 07:14:04;;;;;;;22.20;20.00;;;;;;;8.84;63.35;99946.64;110964;1263;21966;-83
2023/03/30 07:16:43;;;;;;;26.20;23.50;;;;;;;8.90;63.84;99947.98;111025;1259;22955;-82
2023/03/30 07:19:18;;;;;;;25.30;22.90;;;;;;;9.02;63.82;99951.17;111155;1253;23158;-84
2023/03/30 07:21:57;;;;;;;27.70;25.00;;;;;;;9.08;63.64;99949.21;111116;1259;21970;-83
2023/03/30 07:24:33;;;;;;;24.40;22.00;;;;;;;9.16;63.67;99948.55;110879;1262;21968;-83
2023/03/30 07:27:13;;;;;;;22.20;19.90;;;;;;;9.29;63.88;99942.83;110950;1259;21939;-82
2023/03/30 07:29:47;;;;;;;20.30;18.10;;;;;;;9.37;63.61;99939.24;110617;1263;23071;-85
2023/03/30 07:32:21;;;;;;;27.20;22.00;;;;;;;9.38;63.31;99937.47;110802;1261;21938;-82
2023/03/30 07:35:08;;;;;;;18.60;16.50;;;;;;;9.36;63.13;99937.52;110528;1262;21981;-83
2023/03/30 07:37:46;;;;;;;21.00;16.90;;;;;;;9.33;63.12;99940.09;110888;1263;23059;-83
2023/03/30 07:40:27;;;;;;;20.50;16.00;;;;;;;9.37;63.26;99945.34;110433;1266;22063;-82
2023/03/30 07:43:00;;;;;;;18.70;16.70;;;;;;;9.31;62.72;99945.19;110585;1264;23683;-81
2023/03/30 07:45:53;;;;;;;23.10;18.70;;;;;;;9.15;62.58;99944.95;110700;1270;21775;-85
2023/03/30 07:48:36;;;;;;;26.80;20.60;;;;;;;8.99;62.64;99945.20;109913;1266;22728;-85
2023/03/30 07:55:12;;;;;;;26.50;23.40;;;;;;;8.86;63.10;99949.34;110738;1267;22035;-83
2023/03/30 07:58:26;;;;;;;30.70;27.40;;;;;;;8.76;63.32;99942.59;110672;1262;21979;-83
2023/03/30 08:01:02;;;;;;;26.90;24.10;;;;;;;8.74;63.53;99936.24;110807;1262;22043;-83
2023/03/30 08:03:54;;;;;;;26.90;24.30;;;;;;;8.73;63.63;99932.81;110549;1260;22171;-83
2023/03/30 08:06:36;;;;;;;25.70;23.10;;;;;;;8.77;63.81;99936.31;111083;1260;21971;-81
2023/03/30 08:09:20;;;;;;;28.40;25.20;;;;;;;8.79;63.82;99929.13;111178;1260;22988;-83
2023/03/30 08:11:53;;;;;;;28.20;25.20;;;;;;;8.80;63.85;99925.25;110808;1264;22401;-82
2023/03/30 08:14:37;;;;;;;38.20;34.20;;;;;;;8.82;63.81;99918.77;110534;1264;21967;-83
2023/03/30 08:17:24;;;;;;;21.20;18.90;;;;;;;8.78;63.74;99907.47;110775;1263;23960;-84
2023/03/30 08:20:03;;;;;;;21.40;19.20;;;;;;;8.73;63.87;99891.17;110788;1263;21986;-82
2023/03/30 08:22:42;;;;;;;30.70;26.50;;;;;;;8.71;64.03;99883.45;111011;1259;21976;-84
2023/03/30 08:25:22;;;;;;;28.80;24.10;;;;;;;8.68;64.20;99881.29;111053;1259;23690;-83
2023/03/30 08:27:59;;;;;;;27.20;24.40;;;;;;;8.74;64.60;99875.88;111062;1259;23622;-83
2023/03/30 08:30:34;;;;;;;28.70;25.80;;;;;;;8.85;64.78;99872.67;111485;1255;23642;-81
2023/03/30 08:33:12;;;;;;;26.60;24.20;;;;;;;9.01;64.69;99867.38;111542;1254;23697;-82
2023/03/30 08:35:52;;;;;;;25.20;22.60;;;;;;;9.18;64.94;99866.71;111362;1255;22288;-84
2023/03/30 08:38:31;;;;;;;21.10;19.20;;;;;;;9.43;64.88;99866.94;111563;1255;22137;-84
2023/03/30 08:41:31;;;;;;;23.20;20.90;;;;;;;9.62;64.46;99861.10;111427;1255;22007;-82
2023/03/30 08:44:27;;;;;;;21.00;18.40;;;;;;;9.72;63.59;99862.27;111739;1254;21972;-82
2023/03/30 08:47:01;;;;;;;22.30;20.10;;;;;;;9.68;62.89;99853.08;111432;1255;21985;-82
2023/03/30 08:49:55;;;;;;;22.60;20.20;;;;;;;9.67;62.87;99848.91;111092;1261;23088;-82
2023/03/30 08:52:32;;;;;;;22.30;20.00;;;;;;;9.63;62.47;99842.30;110843;1260;23594;-81
2023/03/30 08:55:23;;;;;;;22.30;20.10;;;;;;;9.58;62.33;99834.84;110912;1260;21986;-83
2023/03/30 08:58:14;;;;;;;27.20;24.40;;;;;;;9.68;62.94;99831.15;110949;1260;21988;-83
2023/03/30 09:01:33;;;;;;;26.20;17.80;;;;;;;9.95;63.24;99829.15;110607;1266;22594;-83
2023/03/30 09:04:29;;;;;;;19.80;16.90;;;;;;;10.36;63.66;99816.19;109536;1272;22974;-82
2023/03/30 09:07:11;;;;;;;20.90;16.20;;;;;;;10.88;62.73;99811.55;109881;1268;22003;-81
2023/03/30 09:09:56;;;;;;;19.40;17.00;;;;;;;11.51;62.54;99809.88;110082;1267;22823;-82
2023/03/30 09:12:56;;;;;;;15.80;14.30;;;;;;;12.08;61.37;99814.29;110343;1267;22455;-82
2023/03/30 09:15:45;;;;;;;16.70;14.00;;;;;;;12.40;58.59;99813.48;109755;1270;22450;-81
2023/03/30 09:18:24;;;;;;;15.40;13.30;;;;;;;12.46;57.56;99803.01;109730;1269;22015;-81
2023/03/30 09:21:09;;;;;;;14.80;12.40;;;;;;;12.54;57.12;99800.83;110106;1265;22728;-81
2023/03/30 09:23:45;;;;;;;17.90;12.90;;;;;;;12.56;56.54;99796.06;109878;1264;22059;-83
2023/03/30 09:27:29;;;;;;;17.70;15.90;;;;;;;12.58;56.49;99791.56;109975;1269;23609;-82
2023/03/30 09:30:22;;;;;;;15.20;13.30;;;;;;;12.70;56.88;99778.68;109405;1275;24301;-82
2023/03/30 09:33:16;;;;;;;;;;;;;;;13.07;57.10;99765.06;109525;1271;21973;-82
2023/03/30 09:36:10;;;;;;;14.30;11.70;;;;;;;13.56;57.18;99763.65;109764;1271;22020;-82
2023/03/30 09:38:44;;;;;;;12.90;10.60;;;;;;;14.17;55.43;99766.95;109731;1271;21995;-82
2023/03/30 09:42:12;;;;;;;12.00;10.50;;;;;;;14.53;53.68;99754.39;110191;1263;23037;-83
2023/03/30 09:45:15;;;;;;;14.30;10.80;;;;;;;14.62;52.40;99739.44;110938;1263;22043;-83
2023/03/30 09:47:51;;;;;;;10.30;9.20;;;;;;;14.85;52.10;99727.14;111022;1263;22005;-82
2023/03/30 09:50:45;;;;;;;13.30;10.40;;;;;;;15.08;51.57;99721.28;110337;1268;21966;-81
2023/03/30 09:53:28;;;;;;;18.70;13.70;;;;;;;15.45;52.12;99722.44;110262;1268;21975;-81
2023/03/30 09:56:19;;;;;;;17.00;12.60;;;;;;;15.88;50.82;99728.98;110519;1268;23029;-81
2023/03/30 09:58:49;;;;;;;16.40;11.20;;;;;;;16.12;49.65;99725.35;110140;1268;21970;-81
2023/03/30 10:01:35;;;;;;;15.50;11.80;;;;;;;16.31;48.56;99724.55;111215;1259;21963;-81
2023/03/30 10:04:12;;;;;;;11.10;9.50;;;;;;;16.53;49.14;99715.24;111466;1258;21980;-82
2023/03/30 10:06:52;;;;;;;15.20;10.60;;;;;;;16.73;47.84;99706.27;110530;1265;22601;-80
2023/03/30 10:09:24;;;;;;;12.10;10.10;;;;;;;16.53;46.97;99710.34;110774;1260;22979;-81
2023/03/30 10:12:06;;;;;;;10.50;9.40;;;;;;;16.50;48.47;99707.20;111138;1260;23064;-81
2023/03/30 10:15:01;;;;;;;12.70;10.30;;;;;;;16.71;47.99;99708.33;111253;1260;23069;-82
2023/03/30 10:17:40;;;;;;;13.20;11.80;;;;;;;16.75;47.72;99704.00;111285;1260;22168;-85
2023/03/30 10:20:28;;;;;;;12.80;10.30;;;;;;;16.80;47.57;99706.26;111181;1260;24472;-84
2023/03/30 10:23:17;;;;;;;12.30;10.50;;;;;;;16.67;46.75;99707.75;110599;1266;21970;-81
2023/03/30 10:26:02;;;;;;;12.60;10.10;;;;;;;16.33;46.80;99706.70;111248;1260;22372;-83
2023/03/30 10:28:35;;;;;;;15.00;12.70;;;;;;;16.00;47.13;99706.38;111237;1260;22004;-79
2023/03/30 10:31:17;;;;;;;13.90;11.20;;;;;;;15.90;47.93;99704.09;110960;1265;22974;-81
2023/03/30 10:33:58;;;;;;;13.80;9.90;;;;;;;15.83;47.84;99692.16;110841;1265;22003;-81
2023/03/30 10:36:47;;;;;;;11.70;9.80;;;;;;;15.74;48.30;99686.62;110469;1258;21983;-82
2023/03/30 10:39:35;;;;;;;11.30;9.10;;;;;;;15.68;48.23;99678.63;110650;1266;23753;-79
2023/03/30 10:42:25;;;;;;;15.00;10.30;;;;;;;15.46;48.12;99668.16;111197;1261;21985;-84
2023/03/30 10:45:08;;;;;;;14.00;10.80;;;;;;;15.29;48.69;99664.77;111292;1253;21991;-81
2023/03/30 10:47:47;;;;;;;9.70;8.60;;;;;;;15.29;49.19;99667.44;111657;1261;21968;-82
2023/03/30 10:51:05;;;;;;;10.30;8.70;;;;;;;15.38;49.27;99671.88;111750;1255;21994;-81
2023/03/30 10:54:37;;;;;;;11.10;8.70;;;;;;;15.44;48.99;99674.14;111603;1255;21969;-83
2023/03/30 10:57:25;;;;;;;13.00;9.50;;;;;;;15.30;48.96;99673.88;111764;1253;21977;-82
2023/03/30 11:00:23;;;;;;;;;;;;;;;15.32;49.45;99674.21;111683;1255;21962;-82
2023/03/30 11:03:31;;;;;;;10.60;8.10;;;;;;;15.39;49.95;99677.75;111428;1255;21958;-83
2023/03/30 11:06:21;;;;;;;9.30;8.30;;;;;;;15.51;49.62;99676.44;111436;1255;22230;-81
2023/03/30 11:09:00;;;;;;;11.00;7.60;;;;;;;15.54;49.13;99676.05;111319;1255;21972;-81
2023/03/30 11:11:42;;;;;;;13.40;10.40;;;;;;;15.54;49.17;99678.52;111220;1254;21968;-82
2023/03/30 11:14:33;;;;;;;21.40;17.40;;;;;;;15.57;49.32;99676.01;111132;1255;21979;-82
2023/03/30 11:17:59;;;;;;;15.70;10.20;;;;;;;15.57;49.08;99668.45;111263;1255;22028;-81
2023/03/30 11:20:48;;;;;;;16.10;8.60;;;;;;;15.54;48.90;99660.78;111658;1255;23106;-81
2023/03/30 11:23:50;;;;;;;8.30;6.80;;;;;;;15.45;49.08;99657.20;111432;1255;22236;-82
2023/03/30 11:26:48;;;;;;;9.00;6.70;;;;;;;15.41;49.13;99659.80;111194;1259;21976;-82
2023/03/30 11:29:37;;;;;;;9.60;7.50;;;;;;;15.36;49.27;99654.35;111154;1258;23659;-84
2023/03/30 11:32:46;;;;;;;7.20;6.10;;;;;;;15.31;49.23;99655.95;111362;1259;22824;-83
2023/03/30 11:35:46;;;;;;;11.90;7.60;;;;;;;15.21;49.35;99656.23;111386;1257;21980;-82
2023/03/30 11:38:47;;;;;;;11.80;9.70;;;;;;;15.11;49.42;99650.23;111345;1259;21969;-82
2023/03/30 11:41:35;;;;;;;14.60;13.10;;;;;;;15.03;49.66;99647.27;111284;1260;21975;-83
2023/03/30 11:44:10;;;;;;;8.90;7.80;;;;;;;15.00;49.79;99651.30;110723;1262;22040;-81
2023/03/30 11:47:23;;;;;;;15.30;7.70;;;;;;;14.87;49.76;99646.63;111033;1262;23055;-83
2023/03/30 11:51:17;;;;;;;9.90;8.50;;;;;;;14.69;50.25;99642.38;111202;1261;21993;-82
2023/03/30 11:54:23;;;;;;;12.20;9.80;;;;;;;14.56;50.84;99642.67;110672;1268;22037;-80
2023/03/30 11:57:36;;;;;;;12.20;8.60;;;;;;;14.54;51.04;99639.47;110330;1268;22495;-80
2023/03/30 12:00:47;;;;;;;13.10;8.80;;;;;;;14.54;51.13;99634.73;110538;1268;22117;-80
2023/03/30 12:03:45;;;;;;;17.10;11.60;;;;;;;14.54;51.22;99628.98;110304;1267;21981;-81
2023/03/30 12:06:47;;;;;;;16.00;9.10;;;;;;;14.55;51.22;99617.90;109563;1272;23004;-78
2023/03/30 12:10:01;;;;;;;12.90;9.70;;;;;;;14.44;51.39;99607.05;109763;1267;21976;-78
2023/03/30 12:12:48;;;;;;;11.60;9.70;;;;;;;14.36;51.72;99598.96;108814;1278;22071;-79
2023/03/30 12:16:02;;;;;;;13.00;11.50;;;;;;;14.33;51.82;99598.95;109057;1277;22740;-78
2023/03/30 12:19:31;;;;;;;14.30;9.90;;;;;;;14.26;51.99;99587.01;108800;1276;22193;-80
2023/03/30 12:22:55;;;;;;;11.70;9.30;;;;;;;14.17;52.63;99586.71;108883;1282;23094;-77
2023/03/30 12:26:03;;;;;;;13.50;10.60;;;;;;;14.09;52.99;99595.64;108594;1283;21992;-77
2023/03/30 12:29:10;;;;;;;12.00;10.70;;;;;;;14.01;53.21;99594.40;108923;1283;22052;-79
2023/03/30 12:31:58;;;;;;;15.70;10.30;;;;;;;13.93;53.67;99583.38;108907;1275;22951;-79
2023/03/30 12:34:52;;;;;;;15.30;11.60;;;;;;;13.90;53.89;99584.77;109169;1274;21998;-79
2023/03/30 12:37:47;;;;;;;;;;;;;;;;;;;;;
2023/03/30 12:40:45;;;;;;;20.10;13.90;;;;;;;13.93;54.42;99601.23;109475;1273;21977;-79
2023/03/30 12:44:02;;;;;;;16.00;13.00;;;;;;;13.90;54.83;99600.04;109087;1277;21985;-78
2023/03/30 12:47:02;;;;;;;21.20;14.90;;;;;;;13.82;54.96;99603.34;108368;1289;22091;-79
2023/03/30 12:50:50;;;;;;;19.40;15.00;;;;;;;13.78;55.39;99610.73;108671;1289;22040;-79
2023/03/30 12:53:53;;;;;;;24.00;16.90;;;;;;;13.77;55.53;99613.59;108451;1289;24326;-79
2023/03/30 12:57:07;;;;;;;25.70;19.00;;;;;;;13.81;55.66;99615.09;108489;1291;21998;-79
2023/03/30 13:00:35;;;;;;;25.30;18.80;;;;;;;13.85;55.61;99606.46;108215;1288;22783;-79
2023/03/30 13:03:41;;;;;;;21.20;17.00;;;;;;;13.93;55.77;99597.36;108349;1289;22014;-79
2023/03/30 13:06:46;;;;;;;21.90;16.60;;;;;;;14.05;55.96;99590.65;108425;1286;22009;-81
2023/03/30 13:10:21;;;;;;;18.30;15.00;;;;;;;14.14;55.88;99580.80;108697;1282;22318;-79
2023/03/30 13:12:50;;;;;;;18.00;13.30;;;;;;;14.28;55.95;99576.23;108846;1282;23740;-79
2023/03/30 13:15:53;;;;;;;15.40;12.70;;;;;;;14.45;55.84;99566.35;109158;1279;22027;-79
2023/03/30 13:18:53;;;;;;;13.50;11.80;;;;;;;14.59;55.68;99565.82;109194;1274;22002;-78
2023/03/30 13:21:57;;;;;;;16.70;15.00;;;;;;;14.68;55.37;99557.14;109554;1270;21999;-79
2023/03/30 13:25:00;;;;;;;17.20;14.00;;;;;;;14.74;55.14;99551.33;110259;1262;21968;-79
2023/03/30 13:27:43;;;;;;;20.70;15.00;;;;;;;14.73;54.90;99545.28;110623;1262;23055;-80
2023/03/30 13:30:34;;;;;;;17.30;15.50;;;;;;;14.70;54.97;99543.68;110391;1262;21979;-78
2023/03/30 13:33:31;;;;;;;14.60;12.00;;;;;;;14.69;55.06;99540.12;110560;1262;22033;-78
2023/03/30 13:36:26;;;;;;;15.60;12.70;;;;;;;14.62;55.48;99539.86;110434;1262;23107;-81
2023/03/30 13:39:51;;;;;;;16.50;13.00;;;;;;;14.61;55.77;99540.27;110267;1263;21988;-80
2023/03/30 13:42:32;;;;;;;;;;;;;;;14.65;55.89;99528.64;109162;1281;21970;-80
2023/03/30 13:45:35;;;;;;;20.00;12.30;;;;;;;14.64;56.11;99519.23;109038;1281;22086;-78
2023/03/30 13:48:41;;;;;;;18.80;13.10;;;;;;;14.70;56.05;99513.59;108850;1280;23644;-80
2023/03/30 13:51:26;;;;;;;20.30;13.70;;;;;;;14.80;56.10;99508.71;109022;1281;23866;-79